sensor_id;sensor_type;location;lat;lon;timestamp;P1;durP1;ratioP1;P2;durP2;ratioP2
35576;SDS011;21680;52.400;16.920;2024-01-30T00:01:43;43.90;;;18.30;;
35576;SDS011;21680;52.400;16.920;2024-01-30T00:04:08;50.60;;;19.70;;
35576;SDS011;21680;52.400;16.920;2024-01-30T00:06:33;44.40;;;19.00;;
35576;SDS011;21680;52.400;16.920;2024-01-30T00:09:00;44.20;;;17.50;;
35576;SDS011;21680;52.400;16.920;2024-01-30T00:11:25;54.60;;;19.90;;
35576;SDS011;21680;52.400;16.920;2024-01-30T00:13:53;54.10;;;20.70;;
35576;SDS011;21680;52.400;16.920;2024-01-30T00:16:21;47.50;;;18.90;;
35576;SDS011;21680;52.400;16.920;2024-01-30T00:18:49;57.90;;;21.90;;
35576;SDS011;21680;52.400;16.920;2024-01-30T00:21:15;57.60;;;19.00;;
35576;SDS011;21680;52.400;16.920;2024-01-30T00:23:41;39.30;;;17.80;;
35576;SDS011;21680;52.400;16.920;2024-01-30T00:26:06;46.00;;;19.60;;
35576;SDS011;21680;52.400;16.920;2024-01-30T00:28:31;49.20;;;18.60;;
35576;SDS011;21680;52.400;16.920;2024-01-30T00:30:57;52.90;;;19.90;;
35576;SDS011;21680;52.400;16.920;2024-01-30T00:33:22;51.00;;;20.20;;
35576;SDS011;21680;52.400;16.920;2024-01-30T00:35:47;45.90;;;18.50;;
35576;SDS011;21680;52.400;16.920;2024-01-30T00:38:12;54.20;;;19.80;;
35576;SDS011;21680;52.400;16.920;2024-01-30T00:40:37;47.20;;;19.00;;
35576;SDS011;21680;52.400;16.920;2024-01-30T00:43:03;54.00;;;20.20;;
35576;SDS011;21680;52.400;16.920;2024-01-30T00:45:29;56.50;;;19.00;;
35576;SDS011;21680;52.400;16.920;2024-01-30T00:47:54;45.00;;;17.70;;
35576;SDS011;21680;52.400;16.920;2024-01-30T00:50:20;47.20;;;18.40;;
35576;SDS011;21680;52.400;16.920;2024-01-30T00:52:45;45.50;;;18.70;;
35576;SDS011;21680;52.400;16.920;2024-01-30T00:55:10;47.10;;;18.80;;
35576;SDS011;21680;52.400;16.920;2024-01-30T00:57:36;44.10;;;19.30;;
35576;SDS011;21680;52.400;16.920;2024-01-30T01:00:01;47.70;;;19.00;;
35576;SDS011;21680;52.400;16.920;2024-01-30T01:02:27;52.20;;;20.40;;
35576;SDS011;21680;52.400;16.920;2024-01-30T01:04:53;47.70;;;20.10;;
35576;SDS011;21680;52.400;16.920;2024-01-30T01:07:19;50.40;;;19.20;;
35576;SDS011;21680;52.400;16.920;2024-01-30T01:09:44;54.60;;;20.00;;
35576;SDS011;21680;52.400;16.920;2024-01-30T01:12:09;49.90;;;19.10;;
35576;SDS011;21680;52.400;16.920;2024-01-30T01:14:34;67.30;;;20.70;;
35576;SDS011;21680;52.400;16.920;2024-01-30T01:17:01;50.30;;;19.00;;
35576;SDS011;21680;52.400;16.920;2024-01-30T01:19:26;48.80;;;18.60;;
35576;SDS011;21680;52.400;16.920;2024-01-30T01:21:51;51.40;;;19.60;;
35576;SDS011;21680;52.400;16.920;2024-01-30T01:24:17;51.30;;;20.50;;
35576;SDS011;21680;52.400;16.920;2024-01-30T01:26:42;53.90;;;20.80;;
35576;SDS011;21680;52.400;16.920;2024-01-30T01:29:07;50.90;;;20.10;;
35576;SDS011;21680;52.400;16.920;2024-01-30T01:31:37;48.80;;;20.30;;
35576;SDS011;21680;52.400;16.920;2024-01-30T01:34:11;49.40;;;20.40;;
35576;SDS011;21680;52.400;16.920;2024-01-30T01:36:37;49.70;;;20.80;;
35576;SDS011;21680;52.400;16.920;2024-01-30T01:39:03;48.50;;;19.30;;
35576;SDS011;21680;52.400;16.920;2024-01-30T01:41:32;54.60;;;22.20;;
35576;SDS011;21680;52.400;16.920;2024-01-30T01:43:58;55.40;;;21.40;;
35576;SDS011;21680;52.400;16.920;2024-01-30T01:46:26;53.80;;;21.20;;
35576;SDS011;21680;52.400;16.920;2024-01-30T01:48:52;51.50;;;20.40;;
35576;SDS011;21680;52.400;16.920;2024-01-30T01:51:18;51.20;;;19.50;;
35576;SDS011;21680;52.400;16.920;2024-01-30T01:53:44;48.90;;;19.80;;
35576;SDS011;21680;52.400;16.920;2024-01-30T01:56:10;47.40;;;19.60;;
35576;SDS011;21680;52.400;16.920;2024-01-30T01:58:36;44.60;;;19.10;;
35576;SDS011;21680;52.400;16.920;2024-01-30T02:01:02;55.40;;;19.20;;
35576;SDS011;21680;52.400;16.920;2024-01-30T02:03:28;47.00;;;19.40;;
35576;SDS011;21680;52.400;16.920;2024-01-30T02:05:55;48.40;;;21.00;;
35576;SDS011;21680;52.400;16.920;2024-01-30T02:08:21;45.80;;;19.90;;
35576;SDS011;21680;52.400;16.920;2024-01-30T02:10:48;47.80;;;20.10;;
35576;SDS011;21680;52.400;16.920;2024-01-30T02:13:13;52.30;;;21.20;;
35576;SDS011;21680;52.400;16.920;2024-01-30T02:15:38;51.70;;;19.70;;
35576;SDS011;21680;52.400;16.920;2024-01-30T02:18:03;51.50;;;20.50;;
35576;SDS011;21680;52.400;16.920;2024-01-30T02:20:29;47.80;;;20.50;;
35576;SDS011;21680;52.400;16.920;2024-01-30T02:22:56;46.50;;;18.30;;
35576;SDS011;21680;52.400;16.920;2024-01-30T02:25:39;46.50;;;17.70;;
35576;SDS011;21680;52.400;16.920;2024-01-30T02:28:11;47.10;;;18.60;;
35576;SDS011;21680;52.400;16.920;2024-01-30T02:30:37;47.00;;;19.00;;
35576;SDS011;21680;52.400;16.920;2024-01-30T02:33:03;43.10;;;16.60;;
35576;SDS011;21680;52.400;16.920;2024-01-30T02:35:29;47.50;;;18.30;;
35576;SDS011;21680;52.400;16.920;2024-01-30T02:37:54;49.40;;;17.80;;
35576;SDS011;21680;52.400;16.920;2024-01-30T02:40:19;42.30;;;18.80;;
35576;SDS011;21680;52.400;16.920;2024-01-30T02:42:44;47.70;;;17.90;;
35576;SDS011;21680;52.400;16.920;2024-01-30T02:45:10;41.30;;;18.00;;
35576;SDS011;21680;52.400;16.920;2024-01-30T02:47:36;46.50;;;17.50;;
35576;SDS011;21680;52.400;16.920;2024-01-30T02:50:03;48.80;;;18.90;;
35576;SDS011;21680;52.400;16.920;2024-01-30T02:52:28;41.40;;;16.90;;
35576;SDS011;21680;52.400;16.920;2024-01-30T02:54:54;41.70;;;16.80;;
35576;SDS011;21680;52.400;16.920;2024-01-30T02:57:19;42.90;;;15.40;;
35576;SDS011;21680;52.400;16.920;2024-01-30T02:59:44;41.50;;;16.80;;
35576;SDS011;21680;52.400;16.920;2024-01-30T03:02:09;43.10;;;16.70;;
35576;SDS011;21680;52.400;16.920;2024-01-30T03:04:34;40.20;;;15.70;;
35576;SDS011;21680;52.400;16.920;2024-01-30T03:07:00;47.60;;;17.10;;
35576;SDS011;21680;52.400;16.920;2024-01-30T03:09:25;46.70;;;16.30;;
35576;SDS011;21680;52.400;16.920;2024-01-30T03:11:50;47.20;;;17.90;;
35576;SDS011;21680;52.400;16.920;2024-01-30T03:14:16;42.70;;;16.70;;
35576;SDS011;21680;52.400;16.920;2024-01-30T03:16:41;39.00;;;16.20;;
35576;SDS011;21680;52.400;16.920;2024-01-30T03:19:07;40.70;;;16.10;;
35576;SDS011;21680;52.400;16.920;2024-01-30T03:21:34;41.20;;;16.50;;
35576;SDS011;21680;52.400;16.920;2024-01-30T03:24:00;47.00;;;17.00;;
35576;SDS011;21680;52.400;16.920;2024-01-30T03:26:25;40.70;;;17.10;;
35576;SDS011;21680;52.400;16.920;2024-01-30T03:28:50;45.30;;;17.20;;
35576;SDS011;21680;52.400;16.920;2024-01-30T03:31:16;39.10;;;17.30;;
35576;SDS011;21680;52.400;16.920;2024-01-30T03:33:42;45.60;;;16.40;;
35576;SDS011;21680;52.400;16.920;2024-01-30T03:36:09;35.00;;;15.30;;
35576;SDS011;21680;52.400;16.920;2024-01-30T03:38:36;43.50;;;16.50;;
35576;SDS011;21680;52.400;16.920;2024-01-30T03:41:01;37.30;;;14.80;;
35576;SDS011;21680;52.400;16.920;2024-01-30T03:43:27;44.50;;;16.10;;
35576;SDS011;21680;52.400;16.920;2024-01-30T03:45:52;42.10;;;16.50;;
35576;SDS011;21680;52.400;16.920;2024-01-30T03:48:18;43.40;;;16.10;;
35576;SDS011;21680;52.400;16.920;2024-01-30T03:50:44;36.00;;;16.00;;
35576;SDS011;21680;52.400;16.920;2024-01-30T03:53:09;40.10;;;15.20;;
35576;SDS011;21680;52.400;16.920;2024-01-30T03:55:34;37.50;;;15.00;;
35576;SDS011;21680;52.400;16.920;2024-01-30T03:57:59;38.00;;;15.00;;
35576;SDS011;21680;52.400;16.920;2024-01-30T04:00:25;34.80;;;14.70;;
35576;SDS011;21680;52.400;16.920;2024-01-30T04:02:50;42.80;;;15.90;;
35576;SDS011;21680;52.400;16.920;2024-01-30T04:05:16;42.80;;;15.40;;
35576;SDS011;21680;52.400;16.920;2024-01-30T04:07:42;38.40;;;15.10;;
35576;SDS011;21680;52.400;16.920;2024-01-30T04:10:07;38.20;;;15.10;;
35576;SDS011;21680;52.400;16.920;2024-01-30T04:12:34;34.80;;;14.10;;
35576;SDS011;21680;52.400;16.920;2024-01-30T04:15:00;38.00;;;14.50;;
35576;SDS011;21680;52.400;16.920;2024-01-30T04:17:26;48.40;;;16.20;;
35576;SDS011;21680;52.400;16.920;2024-01-30T04:19:53;37.30;;;15.00;;
35576;SDS011;21680;52.400;16.920;2024-01-30T04:22:18;33.00;;;13.30;;
35576;SDS011;21680;52.400;16.920;2024-01-30T04:24:43;36.40;;;15.10;;
35576;SDS011;21680;52.400;16.920;2024-01-30T04:27:09;35.90;;;14.60;;
35576;SDS011;21680;52.400;16.920;2024-01-30T04:29:34;39.90;;;15.30;;
35576;SDS011;21680;52.400;16.920;2024-01-30T04:31:59;35.50;;;14.50;;
35576;SDS011;21680;52.400;16.920;2024-01-30T04:34:24;31.40;;;14.20;;
35576;SDS011;21680;52.400;16.920;2024-01-30T04:36:50;36.40;;;14.10;;
35576;SDS011;21680;52.400;16.920;2024-01-30T04:39:15;40.80;;;15.90;;
35576;SDS011;21680;52.400;16.920;2024-01-30T04:41:40;36.90;;;14.50;;
35576;SDS011;21680;52.400;16.920;2024-01-30T04:44:06;40.20;;;15.80;;
35576;SDS011;21680;52.400;16.920;2024-01-30T04:46:31;40.10;;;15.70;;
35576;SDS011;21680;52.400;16.920;2024-01-30T04:48:59;36.40;;;14.70;;
35576;SDS011;21680;52.400;16.920;2024-01-30T04:51:24;38.90;;;14.90;;
35576;SDS011;21680;52.400;16.920;2024-01-30T04:53:49;34.60;;;14.70;;
35576;SDS011;21680;52.400;16.920;2024-01-30T04:56:14;37.50;;;15.40;;
35576;SDS011;21680;52.400;16.920;2024-01-30T04:58:39;39.80;;;14.70;;
35576;SDS011;21680;52.400;16.920;2024-01-30T05:01:05;43.90;;;14.30;;
35576;SDS011;21680;52.400;16.920;2024-01-30T05:03:32;38.60;;;15.40;;
35576;SDS011;21680;52.400;16.920;2024-01-30T05:05:59;36.30;;;14.10;;
35576;SDS011;21680;52.400;16.920;2024-01-30T05:08:24;39.10;;;14.40;;
35576;SDS011;21680;52.400;16.920;2024-01-30T05:10:49;32.10;;;14.30;;
35576;SDS011;21680;52.400;16.920;2024-01-30T05:13:15;44.70;;;14.20;;
35576;SDS011;21680;52.400;16.920;2024-01-30T05:15:40;41.60;;;13.40;;
35576;SDS011;21680;52.400;16.920;2024-01-30T05:18:05;31.30;;;13.50;;
35576;SDS011;21680;52.400;16.920;2024-01-30T05:20:31;36.20;;;14.60;;
35576;SDS011;21680;52.400;16.920;2024-01-30T05:22:56;33.30;;;14.00;;
35576;SDS011;21680;52.400;16.920;2024-01-30T05:25:21;42.00;;;16.10;;
35576;SDS011;21680;52.400;16.920;2024-01-30T05:27:46;32.50;;;13.50;;
35576;SDS011;21680;52.400;16.920;2024-01-30T05:30:12;38.80;;;15.50;;
35576;SDS011;21680;52.400;16.920;2024-01-30T05:32:38;44.00;;;15.20;;
35576;SDS011;21680;52.400;16.920;2024-01-30T05:35:04;42.40;;;17.10;;
35576;SDS011;21680;52.400;16.920;2024-01-30T05:37:30;43.50;;;16.30;;
35576;SDS011;21680;52.400;16.920;2024-01-30T05:39:55;46.90;;;17.30;;
35576;SDS011;21680;52.400;16.920;2024-01-30T05:42:20;39.60;;;16.20;;
35576;SDS011;21680;52.400;16.920;2024-01-30T05:44:46;43.00;;;15.50;;
35576;SDS011;21680;52.400;16.920;2024-01-30T05:47:11;39.70;;;14.70;;
35576;SDS011;21680;52.400;16.920;2024-01-30T05:49:36;41.60;;;14.10;;
35576;SDS011;21680;52.400;16.920;2024-01-30T05:52:02;35.20;;;14.80;;
35576;SDS011;21680;52.400;16.920;2024-01-30T05:54:28;37.60;;;13.90;;
35576;SDS011;21680;52.400;16.920;2024-01-30T05:56:54;36.90;;;13.60;;
35576;SDS011;21680;52.400;16.920;2024-01-30T05:59:19;35.30;;;13.20;;
35576;SDS011;21680;52.400;16.920;2024-01-30T06:01:47;36.90;;;14.30;;
35576;SDS011;21680;52.400;16.920;2024-01-30T06:04:13;46.30;;;13.50;;
35576;SDS011;21680;52.400;16.920;2024-01-30T06:06:39;42.70;;;15.00;;
35576;SDS011;21680;52.400;16.920;2024-01-30T06:09:06;45.60;;;14.30;;
35576;SDS011;21680;52.400;16.920;2024-01-30T06:11:34;41.50;;;13.90;;
35576;SDS011;21680;52.400;16.920;2024-01-30T06:13:59;37.50;;;14.30;;
35576;SDS011;21680;52.400;16.920;2024-01-30T06:16:24;41.30;;;14.30;;
35576;SDS011;21680;52.400;16.920;2024-01-30T06:18:54;39.40;;;14.60;;
35576;SDS011;21680;52.400;16.920;2024-01-30T06:21:20;40.90;;;15.20;;
35576;SDS011;21680;52.400;16.920;2024-01-30T06:23:45;37.20;;;14.90;;
35576;SDS011;21680;52.400;16.920;2024-01-30T06:26:11;38.20;;;15.40;;
35576;SDS011;21680;52.400;16.920;2024-01-30T06:28:36;38.10;;;14.00;;
35576;SDS011;21680;52.400;16.920;2024-01-30T06:31:01;39.10;;;14.80;;
35576;SDS011;21680;52.400;16.920;2024-01-30T06:33:26;46.40;;;15.90;;
35576;SDS011;21680;52.400;16.920;2024-01-30T06:35:52;40.80;;;15.90;;
35576;SDS011;21680;52.400;16.920;2024-01-30T06:38:17;39.60;;;14.40;;
35576;SDS011;21680;52.400;16.920;2024-01-30T06:40:42;45.90;;;13.80;;
35576;SDS011;21680;52.400;16.920;2024-01-30T06:43:08;32.70;;;13.40;;
35576;SDS011;21680;52.400;16.920;2024-01-30T06:45:33;33.90;;;14.00;;
35576;SDS011;21680;52.400;16.920;2024-01-30T06:47:59;37.80;;;14.50;;
35576;SDS011;21680;52.400;16.920;2024-01-30T06:50:25;40.40;;;15.70;;
35576;SDS011;21680;52.400;16.920;2024-01-30T06:52:51;36.70;;;15.10;;
35576;SDS011;21680;52.400;16.920;2024-01-30T06:55:16;35.20;;;14.40;;
35576;SDS011;21680;52.400;16.920;2024-01-30T06:57:43;35.70;;;14.80;;
35576;SDS011;21680;52.400;16.920;2024-01-30T07:00:08;38.40;;;14.50;;
35576;SDS011;21680;52.400;16.920;2024-01-30T07:02:33;36.20;;;15.30;;
35576;SDS011;21680;52.400;16.920;2024-01-30T07:04:59;35.70;;;13.90;;
35576;SDS011;21680;52.400;16.920;2024-01-30T07:07:24;48.60;;;15.70;;
35576;SDS011;21680;52.400;16.920;2024-01-30T07:09:49;40.50;;;17.30;;
35576;SDS011;21680;52.400;16.920;2024-01-30T07:12:17;36.40;;;15.40;;
35576;SDS011;21680;52.400;16.920;2024-01-30T07:14:43;38.50;;;16.50;;
35576;SDS011;21680;52.400;16.920;2024-01-30T07:17:08;37.60;;;16.60;;
35576;SDS011;21680;52.400;16.920;2024-01-30T07:19:34;31.60;;;15.40;;
35576;SDS011;21680;52.400;16.920;2024-01-30T07:22:00;43.10;;;15.60;;
35576;SDS011;21680;52.400;16.920;2024-01-30T07:24:25;42.70;;;15.70;;
35576;SDS011;21680;52.400;16.920;2024-01-30T07:26:51;35.00;;;14.90;;
35576;SDS011;21680;52.400;16.920;2024-01-30T07:29:16;34.30;;;15.60;;
35576;SDS011;21680;52.400;16.920;2024-01-30T07:31:41;45.30;;;17.50;;
35576;SDS011;21680;52.400;16.920;2024-01-30T07:34:06;43.50;;;15.70;;
35576;SDS011;21680;52.400;16.920;2024-01-30T07:36:32;36.80;;;15.20;;
35576;SDS011;21680;52.400;16.920;2024-01-30T07:38:57;35.10;;;14.50;;
35576;SDS011;21680;52.400;16.920;2024-01-30T07:41:23;32.40;;;15.80;;
35576;SDS011;21680;52.400;16.920;2024-01-30T07:43:50;35.20;;;15.70;;
35576;SDS011;21680;52.400;16.920;2024-01-30T07:46:15;35.20;;;15.30;;
35576;SDS011;21680;52.400;16.920;2024-01-30T07:48:41;38.50;;;15.50;;
35576;SDS011;21680;52.400;16.920;2024-01-30T07:51:06;33.00;;;14.10;;
35576;SDS011;21680;52.400;16.920;2024-01-30T07:53:31;32.40;;;13.80;;
35576;SDS011;21680;52.400;16.920;2024-01-30T07:55:56;29.90;;;13.50;;
35576;SDS011;21680;52.400;16.920;2024-01-30T07:58:22;39.70;;;14.30;;
35576;SDS011;21680;52.400;16.920;2024-01-30T08:00:48;37.50;;;16.30;;
35576;SDS011;21680;52.400;16.920;2024-01-30T08:03:16;36.00;;;15.30;;
35576;SDS011;21680;52.400;16.920;2024-01-30T08:05:43;32.20;;;13.90;;
35576;SDS011;21680;52.400;16.920;2024-01-30T08:08:08;31.50;;;12.80;;
35576;SDS011;21680;52.400;16.920;2024-01-30T08:10:34;28.60;;;13.40;;
35576;SDS011;21680;52.400;16.920;2024-01-30T08:12:59;35.20;;;13.20;;
35576;SDS011;21680;52.400;16.920;2024-01-30T08:15:24;32.90;;;12.10;;
35576;SDS011;21680;52.400;16.920;2024-01-30T08:17:49;32.20;;;14.20;;
35576;SDS011;21680;52.400;16.920;2024-01-30T08:20:15;29.90;;;14.00;;
35576;SDS011;21680;52.400;16.920;2024-01-30T08:22:41;26.00;;;12.50;;
35576;SDS011;21680;52.400;16.920;2024-01-30T08:25:06;30.60;;;13.70;;
35576;SDS011;21680;52.400;16.920;2024-01-30T08:27:33;37.30;;;13.90;;
35576;SDS011;21680;52.400;16.920;2024-01-30T08:30:00;29.90;;;14.60;;
35576;SDS011;21680;52.400;16.920;2024-01-30T08:32:26;24.80;;;12.70;;
35576;SDS011;21680;52.400;16.920;2024-01-30T08:34:51;30.60;;;13.70;;
35576;SDS011;21680;52.400;16.920;2024-01-30T08:37:17;34.50;;;13.60;;
35576;SDS011;21680;52.400;16.920;2024-01-30T08:39:43;29.20;;;12.80;;
35576;SDS011;21680;52.400;16.920;2024-01-30T08:42:09;29.00;;;13.60;;
35576;SDS011;21680;52.400;16.920;2024-01-30T08:44:35;38.40;;;13.50;;
35576;SDS011;21680;52.400;16.920;2024-01-30T08:47:00;28.70;;;13.30;;
35576;SDS011;21680;52.400;16.920;2024-01-30T08:49:26;38.50;;;14.70;;
35576;SDS011;21680;52.400;16.920;2024-01-30T08:51:51;41.00;;;15.60;;
35576;SDS011;21680;52.400;16.920;2024-01-30T08:54:16;34.30;;;13.20;;
35576;SDS011;21680;52.400;16.920;2024-01-30T08:56:42;28.40;;;12.70;;
35576;SDS011;21680;52.400;16.920;2024-01-30T08:59:08;33.50;;;12.70;;
35576;SDS011;21680;52.400;16.920;2024-01-30T09:01:33;34.90;;;16.10;;
35576;SDS011;21680;52.400;16.920;2024-01-30T09:03:59;38.70;;;16.30;;
35576;SDS011;21680;52.400;16.920;2024-01-30T09:06:24;47.30;;;15.30;;
35576;SDS011;21680;52.400;16.920;2024-01-30T09:08:51;38.00;;;13.80;;
35576;SDS011;21680;52.400;16.920;2024-01-30T09:11:16;31.70;;;12.50;;
35576;SDS011;21680;52.400;16.920;2024-01-30T09:13:42;30.80;;;13.50;;
35576;SDS011;21680;52.400;16.920;2024-01-30T09:16:08;25.70;;;11.00;;
35576;SDS011;21680;52.400;16.920;2024-01-30T09:18:34;30.40;;;12.90;;
35576;SDS011;21680;52.400;16.920;2024-01-30T09:20:59;37.10;;;13.70;;
35576;SDS011;21680;52.400;16.920;2024-01-30T09:23:25;37.90;;;13.30;;
35576;SDS011;21680;52.400;16.920;2024-01-30T09:25:52;39.60;;;14.70;;
35576;SDS011;21680;52.400;16.920;2024-01-30T09:28:18;30.00;;;12.40;;
35576;SDS011;21680;52.400;16.920;2024-01-30T09:30:43;48.30;;;20.50;;
35576;SDS011;21680;52.400;16.920;2024-01-30T09:33:08;31.90;;;13.80;;
35576;SDS011;21680;52.400;16.920;2024-01-30T09:35:34;30.30;;;13.10;;
35576;SDS011;21680;52.400;16.920;2024-01-30T09:38:01;33.10;;;13.20;;
35576;SDS011;21680;52.400;16.920;2024-01-30T09:40:27;36.70;;;15.10;;
35576;SDS011;21680;52.400;16.920;2024-01-30T09:42:53;33.60;;;14.10;;
35576;SDS011;21680;52.400;16.920;2024-01-30T09:45:21;36.60;;;13.60;;
35576;SDS011;21680;52.400;16.920;2024-01-30T09:47:49;38.60;;;15.20;;
35576;SDS011;21680;52.400;16.920;2024-01-30T09:50:15;42.70;;;16.20;;
35576;SDS011;21680;52.400;16.920;2024-01-30T09:52:42;42.50;;;14.60;;
35576;SDS011;21680;52.400;16.920;2024-01-30T09:55:09;39.00;;;15.60;;
35576;SDS011;21680;52.400;16.920;2024-01-30T09:57:34;37.40;;;15.90;;
35576;SDS011;21680;52.400;16.920;2024-01-30T10:00:00;35.50;;;15.30;;
35576;SDS011;21680;52.400;16.920;2024-01-30T10:02:26;34.90;;;15.20;;
35576;SDS011;21680;52.400;16.920;2024-01-30T10:04:51;51.20;;;18.50;;
35576;SDS011;21680;52.400;16.920;2024-01-30T10:07:17;39.10;;;15.90;;
35576;SDS011;21680;52.400;16.920;2024-01-30T10:09:43;36.80;;;15.00;;
35576;SDS011;21680;52.400;16.920;2024-01-30T10:12:09;31.50;;;14.60;;
35576;SDS011;21680;52.400;16.920;2024-01-30T10:14:38;36.90;;;14.40;;
35576;SDS011;21680;52.400;16.920;2024-01-30T10:17:04;28.50;;;13.30;;
35576;SDS011;21680;52.400;16.920;2024-01-30T10:19:31;34.60;;;13.40;;
35576;SDS011;21680;52.400;16.920;2024-01-30T10:21:56;31.50;;;14.20;;
35576;SDS011;21680;52.400;16.920;2024-01-30T10:24:24;33.60;;;13.40;;
35576;SDS011;21680;52.400;16.920;2024-01-30T10:26:50;31.40;;;13.80;;
35576;SDS011;21680;52.400;16.920;2024-01-30T10:29:16;34.30;;;14.10;;
35576;SDS011;21680;52.400;16.920;2024-01-30T10:31:42;35.90;;;14.20;;
35576;SDS011;21680;52.400;16.920;2024-01-30T10:34:07;36.10;;;14.10;;
35576;SDS011;21680;52.400;16.920;2024-01-30T10:36:33;36.20;;;14.30;;
35576;SDS011;21680;52.400;16.920;2024-01-30T10:39:06;31.40;;;11.70;;
35576;SDS011;21680;52.400;16.920;2024-01-30T10:41:32;35.30;;;14.00;;
35576;SDS011;21680;52.400;16.920;2024-01-30T10:44:08;41.40;;;13.90;;
35576;SDS011;21680;52.400;16.920;2024-01-30T10:46:35;30.40;;;13.50;;
35576;SDS011;21680;52.400;16.920;2024-01-30T10:49:05;33.90;;;12.70;;
35576;SDS011;21680;52.400;16.920;2024-01-30T10:51:31;37.90;;;12.90;;
35576;SDS011;21680;52.400;16.920;2024-01-30T10:53:57;30.40;;;13.40;;
35576;SDS011;21680;52.400;16.920;2024-01-30T10:56:23;33.80;;;12.10;;
35576;SDS011;21680;52.400;16.920;2024-01-30T10:58:49;35.70;;;14.00;;
35576;SDS011;21680;52.400;16.920;2024-01-30T11:01:17;32.60;;;13.30;;
35576;SDS011;21680;52.400;16.920;2024-01-30T11:03:44;38.70;;;13.90;;
35576;SDS011;21680;52.400;16.920;2024-01-30T11:06:11;28.70;;;11.80;;
35576;SDS011;21680;52.400;16.920;2024-01-30T11:08:43;39.20;;;12.70;;
35576;SDS011;21680;52.400;16.920;2024-01-30T11:11:08;32.00;;;12.80;;
35576;SDS011;21680;52.400;16.920;2024-01-30T11:13:35;32.30;;;13.20;;
35576;SDS011;21680;52.400;16.920;2024-01-30T11:16:03;28.90;;;12.70;;
35576;SDS011;21680;52.400;16.920;2024-01-30T11:18:30;28.40;;;13.00;;
35576;SDS011;21680;52.400;16.920;2024-01-30T11:20:57;30.50;;;12.90;;
35576;SDS011;21680;52.400;16.920;2024-01-30T11:23:23;44.30;;;13.70;;
35576;SDS011;21680;52.400;16.920;2024-01-30T11:25:48;28.90;;;13.00;;
35576;SDS011;21680;52.400;16.920;2024-01-30T11:28:14;24.90;;;11.10;;
35576;SDS011;21680;52.400;16.920;2024-01-30T11:30:41;36.10;;;16.60;;
35576;SDS011;21680;52.400;16.920;2024-01-30T11:33:08;29.50;;;11.70;;
35576;SDS011;21680;52.400;16.920;2024-01-30T11:35:38;25.10;;;11.50;;
35576;SDS011;21680;52.400;16.920;2024-01-30T11:38:05;25.80;;;11.20;;
35576;SDS011;21680;52.400;16.920;2024-01-30T11:40:32;29.90;;;10.90;;
35576;SDS011;21680;52.400;16.920;2024-01-30T11:42:58;30.50;;;11.50;;
35576;SDS011;21680;52.400;16.920;2024-01-30T11:45:25;30.10;;;11.70;;
35576;SDS011;21680;52.400;16.920;2024-01-30T11:47:53;28.50;;;11.10;;
35576;SDS011;21680;52.400;16.920;2024-01-30T11:50:19;23.90;;;10.90;;
35576;SDS011;21680;52.400;16.920;2024-01-30T11:52:45;24.80;;;10.50;;
35576;SDS011;21680;52.400;16.920;2024-01-30T11:55:10;24.10;;;11.00;;
35576;SDS011;21680;52.400;16.920;2024-01-30T11:57:37;30.40;;;13.50;;
35576;SDS011;21680;52.400;16.920;2024-01-30T12:00:05;31.20;;;12.90;;
35576;SDS011;21680;52.400;16.920;2024-01-30T12:02:35;36.60;;;12.30;;
35576;SDS011;21680;52.400;16.920;2024-01-30T12:05:07;24.60;;;11.60;;
35576;SDS011;21680;52.400;16.920;2024-01-30T12:07:33;33.80;;;12.50;;
35576;SDS011;21680;52.400;16.920;2024-01-30T12:09:58;24.90;;;11.80;;
35576;SDS011;21680;52.400;16.920;2024-01-30T12:12:25;25.20;;;11.80;;
35576;SDS011;21680;52.400;16.920;2024-01-30T12:14:51;37.50;;;11.50;;
35576;SDS011;21680;52.400;16.920;2024-01-30T12:17:23;26.20;;;11.70;;
35576;SDS011;21680;52.400;16.920;2024-01-30T12:20:10;29.10;;;11.80;;
35576;SDS011;21680;52.400;16.920;2024-01-30T12:22:36;31.90;;;11.50;;
35576;SDS011;21680;52.400;16.920;2024-01-30T12:25:16;27.20;;;12.50;;
35576;SDS011;21680;52.400;16.920;2024-01-30T12:27:43;23.60;;;11.20;;
35576;SDS011;21680;52.400;16.920;2024-01-30T12:30:14;27.00;;;11.50;;
35576;SDS011;21680;52.400;16.920;2024-01-30T12:32:56;26.10;;;10.80;;
35576;SDS011;21680;52.400;16.920;2024-01-30T12:35:23;24.90;;;10.80;;
35576;SDS011;21680;52.400;16.920;2024-01-30T12:37:48;20.40;;;10.20;;
35576;SDS011;21680;52.400;16.920;2024-01-30T12:40:15;26.80;;;10.90;;
35576;SDS011;21680;52.400;16.920;2024-01-30T12:42:40;23.80;;;10.90;;
35576;SDS011;21680;52.400;16.920;2024-01-30T12:45:11;28.30;;;11.20;;
35576;SDS011;21680;52.400;16.920;2024-01-30T12:47:37;28.70;;;10.60;;
35576;SDS011;21680;52.400;16.920;2024-01-30T12:50:02;34.70;;;10.80;;
35576;SDS011;21680;52.400;16.920;2024-01-30T12:52:28;37.20;;;13.20;;
35576;SDS011;21680;52.400;16.920;2024-01-30T12:54:54;29.20;;;12.50;;
35576;SDS011;21680;52.400;16.920;2024-01-30T12:57:19;34.50;;;15.20;;
35576;SDS011;21680;52.400;16.920;2024-01-30T12:59:45;36.30;;;15.40;;
35576;SDS011;21680;52.400;16.920;2024-01-30T13:02:11;34.80;;;17.60;;
35576;SDS011;21680;52.400;16.920;2024-01-30T13:04:37;33.90;;;16.30;;
35576;SDS011;21680;52.400;16.920;2024-01-30T13:07:03;35.00;;;14.90;;
35576;SDS011;21680;52.400;16.920;2024-01-30T13:09:29;32.50;;;13.30;;
35576;SDS011;21680;52.400;16.920;2024-01-30T13:11:55;31.70;;;12.30;;
35576;SDS011;21680;52.400;16.920;2024-01-30T13:14:22;29.30;;;13.00;;
35576;SDS011;21680;52.400;16.920;2024-01-30T13:16:48;24.80;;;11.80;;
35576;SDS011;21680;52.400;16.920;2024-01-30T13:19:13;31.90;;;13.80;;
35576;SDS011;21680;52.400;16.920;2024-01-30T13:21:39;36.40;;;16.00;;
35576;SDS011;21680;52.400;16.920;2024-01-30T13:24:04;35.60;;;15.20;;
35576;SDS011;21680;52.400;16.920;2024-01-30T13:26:31;32.40;;;13.20;;
35576;SDS011;21680;52.400;16.920;2024-01-30T13:28:57;36.00;;;17.10;;
35576;SDS011;21680;52.400;16.920;2024-01-30T13:31:22;37.40;;;14.50;;
35576;SDS011;21680;52.400;16.920;2024-01-30T13:33:47;30.20;;;12.50;;
35576;SDS011;21680;52.400;16.920;2024-01-30T13:36:14;27.60;;;12.20;;
35576;SDS011;21680;52.400;16.920;2024-01-30T13:38:40;30.60;;;13.20;;
35576;SDS011;21680;52.400;16.920;2024-01-30T13:41:06;31.80;;;13.50;;
35576;SDS011;21680;52.400;16.920;2024-01-30T13:43:31;29.10;;;12.70;;
35576;SDS011;21680;52.400;16.920;2024-01-30T13:45:57;30.20;;;12.10;;
35576;SDS011;21680;52.400;16.920;2024-01-30T13:48:22;28.60;;;11.90;;
35576;SDS011;21680;52.400;16.920;2024-01-30T13:50:47;32.10;;;13.80;;
35576;SDS011;21680;52.400;16.920;2024-01-30T13:53:13;36.80;;;13.40;;
35576;SDS011;21680;52.400;16.920;2024-01-30T13:55:38;29.80;;;12.00;;
35576;SDS011;21680;52.400;16.920;2024-01-30T13:58:07;29.50;;;13.30;;
35576;SDS011;21680;52.400;16.920;2024-01-30T14:00:33;32.60;;;12.30;;
35576;SDS011;21680;52.400;16.920;2024-01-30T14:02:59;27.60;;;12.20;;